Time;durP1;ratioP1;P1;durP2;ratioP2;P2;SDS_P1;SDS_P2;PMS_P1;PMS_P2;Temp;Humidity;BMP_temperature;BMP_pressure;BME280_temperature;BME280_humidity;BME280_pressure;Samples;Min_cycle;Max_cycle;Signal;HPM_P1;HPM_P2
2022/06/12 00:00:37;;;;;;;11.13;4.30;;;22.60;51.10;;;;;;5037926;28;20106;-55
2022/06/12 00:03:05;;;;;;;6.95;3.65;;;22.60;51.10;;;;;;5064216;28;20052;-59
2022/06/12 00:05:33;;;;;;;10.40;5.15;;;22.60;50.80;;;;;;5066411;28;20085;-56
2022/06/12 00:07:59;;;;;;;7.47;4.45;;;22.60;51.00;;;;;;5072095;28;20033;-56
2022/06/12 00:10:25;;;;;;;8.85;3.88;;;22.60;51.00;;;;;;5072223;28;20450;-57
2022/06/12 00:12:52;;;;;;;8.57;4.75;;;22.50;50.80;;;;;;5052426;28;20039;-56
2022/06/12 00:15:21;;;;;;;8.43;4.95;;;22.60;51.00;;;;;;5048010;28;20025;-54
2022/06/12 00:17:47;;;;;;;9.13;4.82;;;22.60;51.10;;;;;;5051801;28;20036;-59
2022/06/12 00:20:16;;;;;;;9.68;5.18;;;22.50;51.00;;;;;;5052138;28;20032;-57
2022/06/12 00:22:43;;;;;;;7.32;4.13;;;22.50;51.40;;;;;;5048120;28;20101;-57
2022/06/12 00:25:12;;;;;;;6.75;4.40;;;22.50;51.30;;;;;;5066984;28;20112;-56
2022/06/12 00:27:39;;;;;;;6.47;3.95;;;22.50;51.20;;;;;;5042829;28;20029;-58
2022/06/12 00:30:06;;;;;;;8.70;4.47;;;22.50;51.40;;;;;;5039720;28;20048;-55
2022/06/12 00:32:32;;;;;;;8.18;4.68;;;22.40;51.50;;;;;;5069773;28;20033;-55
2022/06/12 00:34:58;;;;;;;11.23;3.85;;;22.40;51.60;;;;;;5070117;28;20492;-56
2022/06/12 00:37:26;;;;;;;7.50;3.95;;;22.40;51.60;;;;;;5071863;28;20485;-55
2022/06/12 00:39:54;;;;;;;8.63;4.05;;;22.30;51.70;;;;;;5071545;28;20035;-57
2022/06/12 00:42:23;;;;;;;9.18;3.92;;;22.30;51.50;;;;;;5068796;28;20036;-62
2022/06/12 00:44:50;;;;;;;6.82;3.70;;;22.30;51.60;;;;;;5071928;28;20426;-57
2022/06/12 00:47:17;;;;;;;9.75;3.38;;;22.30;51.60;;;;;;5092113;28;20020;-58
2022/06/12 00:49:50;;;;;;;6.10;3.65;;;22.30;51.30;;;;;;5080783;28;20377;-58
2022/06/12 00:52:34;;;;;;;5.38;3.30;;;22.30;51.20;;;;;;5077320;28;20040;-57
2022/06/12 00:55:15;;;;;;;8.43;3.50;;;22.10;51.20;;;;;;5090044;28;20441;-55
2022/06/12 00:57:41;;;;;;;6.72;3.38;;;22.10;51.30;;;;;;5089957;28;20024;-56
2022/06/12 01:00:13;;;;;;;5.57;3.17;;;22.10;51.40;;;;;;5097168;28;20123;-56
2022/06/12 01:02:39;;;;;;;6.93;3.30;;;22.10;51.50;;;;;;5083695;28;20020;-55
2022/06/12 01:07:57;;;;;;;7.57;3.42;;;22.10;51.80;;;;;;5096693;28;20081;-55
2022/06/12 01:10:25;;;;;;;5.20;3.38;;;22.00;51.90;;;;;;5098403;28;20093;-55
2022/06/12 01:12:57;;;;;;;6.82;3.58;;;22.00;51.90;;;;;;5096116;28;20477;-61
2022/06/12 01:15:31;;;;;;;7.28;3.85;;;22.00;51.80;;;;;;5096565;28;20487;-56
2022/06/12 01:17:58;;;;;;;7.50;3.05;;;22.10;51.70;;;;;;5098217;28;20020;-57
2022/06/12 01:20:28;;;;;;;4.93;2.78;;;22.10;51.70;;;;;;5097495;28;20036;-57
2022/06/12 01:23:18;;;;;;;6.53;3.03;;;22.10;51.70;;;;;;5094452;28;20154;-59
2022/06/12 01:26:12;;;;;;;7.97;3.10;;;22.00;51.50;;;;;;5096867;28;20103;-56
2022/06/12 01:28:51;;;;;;;7.17;2.97;;;22.00;51.60;;;;;;5094733;28;20040;-56
2022/06/12 01:31:38;;;;;;;5.95;2.92;;;22.00;51.40;;;;;;5095886;28;20020;-59
2022/06/12 01:34:22;;;;;;;9.25;2.85;;;22.00;51.40;;;;;;5076667;28;20480;-59
2022/06/12 01:37:18;;;;;;;6.40;2.95;;;22.00;51.30;;;;;;5095131;28;20028;-56
2022/06/12 01:40:16;;;;;;;6.88;3.20;;;21.90;51.30;;;;;;5089737;28;20058;-56
2022/06/12 01:43:15;;;;;;;5.97;2.75;;;21.90;51.40;;;;;;5095323;28;20449;-57
2022/06/12 01:46:12;;;;;;;4.78;2.60;;;22.00;51.30;;;;;;5074485;28;20447;-53
2022/06/12 01:49:01;;;;;;;7.03;3.85;;;21.90;51.40;;;;;;5050722;28;20059;-55
2022/06/12 01:51:40;;;;;;;6.75;3.45;;;21.90;51.50;;;;;;5076473;28;20112;-57
2022/06/12 01:54:05;;;;;;;4.43;2.90;;;21.90;51.50;;;;;;5075970;28;20031;-58
2022/06/12 01:56:40;;;;;;;4.00;2.75;;;21.90;51.50;;;;;;5074836;28;20029;-57
2022/06/12 01:59:38;;;;;;;6.40;3.30;;;21.90;51.50;;;;;;5071002;28;20040;-62
2022/06/12 02:02:36;;;;;;;4.20;2.60;;;21.80;51.90;;;;;;5065216;28;20033;-54
2022/06/12 02:05:22;;;;;;;5.85;3.40;;;21.70;52.00;;;;;;5062604;28;20016;-58
2022/06/12 02:08:02;;;;;;;5.32;3.00;;;21.70;52.30;;;;;;5054986;28;20075;-56
2022/06/12 02:10:42;;;;;;;8.50;3.28;;;21.70;52.60;;;;;;5072869;28;20041;-57
2022/06/12 02:13:15;;;;;;;8.55;3.53;;;21.60;52.60;;;;;;5066951;28;20037;-57
2022/06/12 02:16:07;;;;;;;5.93;3.30;;;21.60;53.00;;;;;;5072093;28;20029;-57
2022/06/12 02:18:50;;;;;;;5.00;3.13;;;21.60;53.40;;;;;;5072821;28;20377;-57
2022/06/12 02:21:24;;;;;;;5.90;3.35;;;21.60;53.70;;;;;;5073153;28;20107;-57
2022/06/12 02:24:05;;;;;;;5.72;3.03;;;21.60;53.80;;;;;;5070977;28;20107;-58
2022/06/12 02:27:00;;;;;;;6.03;3.50;;;21.60;54.00;;;;;;5072031;28;20067;-58
2022/06/12 02:29:50;;;;;;;9.15;3.50;;;21.60;54.30;;;;;;5060249;28;20040;-53
2022/06/12 02:32:32;;;;;;;7.53;3.30;;;21.60;54.70;;;;;;5069596;28;20099;-53
2022/06/12 02:35:08;;;;;;;8.02;3.75;;;21.50;54.80;;;;;;5068519;28;20027;-61
2022/06/12 02:37:39;;;;;;;5.32;3.60;;;21.60;54.90;;;;;;5072672;28;20094;-57
2022/06/12 02:40:20;;;;;;;7.20;4.00;;;21.60;55.00;;;;;;5054901;28;20036;-55
2022/06/12 02:42:48;;;;;;;10.32;4.10;;;21.60;55.00;;;;;;5070282;28;20032;-54
2022/06/12 02:45:20;;;;;;;8.38;3.60;;;21.60;55.10;;;;;;5067860;28;20504;-55
2022/06/12 02:47:48;;;;;;;7.97;4.20;;;21.60;55.20;;;;;;5042789;28;20024;-55
2022/06/12 02:50:16;;;;;;;5.53;3.70;;;21.60;55.60;;;;;;5062741;28;20559;-57
2022/06/12 02:52:53;;;;;;;5.93;3.83;;;21.60;55.90;;;;;;5059720;28;20029;-57
2022/06/12 02:55:34;;;;;;;5.78;4.00;;;21.50;56.10;;;;;;5061698;28;20873;-53
2022/06/12 02:58:35;;;;;;;7.70;3.53;;;21.50;56.30;;;;;;5062983;28;20351;-57
2022/06/12 03:01:12;;;;;;;6.38;3.72;;;21.50;56.40;;;;;;5034051;28;20044;-57
2022/06/12 03:03:56;;;;;;;6.90;3.38;;;21.60;56.30;;;;;;5063597;28;20075;-61
2022/06/12 03:06:29;;;;;;;6.68;3.70;;;21.50;56.30;;;;;;5062719;28;20028;-55
2022/06/12 03:08:58;;;;;;;8.85;3.63;;;21.60;56.40;;;;;;5062843;28;20059;-62
2022/06/12 03:11:28;;;;;;;6.45;3.28;;;21.50;56.30;;;;;;5062983;28;20108;-57
2022/06/12 03:13:57;;;;;;;9.52;3.47;;;21.50;56.40;;;;;;5060531;28;20029;-57
2022/06/12 03:16:32;;;;;;;8.73;4.07;;;21.50;56.30;;;;;;5060424;28;20385;-61
2022/06/12 03:19:05;;;;;;;5.25;3.33;;;21.50;56.50;;;;;;5062271;28;20465;-55
2022/06/12 03:21:47;;;;;;;8.70;3.30;;;21.50;56.40;;;;;;5063161;28;20070;-56
2022/06/12 03:24:41;;;;;;;5.75;3.50;;;21.60;56.20;;;;;;5065058;28;20036;-52
2022/06/12 03:27:18;;;;;;;5.93;3.85;;;21.60;56.20;;;;;;5061888;28;20032;-57
2022/06/12 03:30:02;;;;;;;6.40;3.60;;;21.60;56.10;;;;;;5061588;28;20443;-59
2022/06/12 03:32:33;;;;;;;8.48;3.10;;;21.60;56.20;;;;;;5063089;28;20092;-57
2022/06/12 03:35:35;;;;;;;6.60;3.30;;;21.60;56.10;;;;;;5062841;28;20024;-54
2022/06/12 03:38:21;;;;;;;7.25;3.20;;;21.60;56.40;;;;;;5060555;28;20025;-64
2022/06/12 03:41:06;;;;;;;4.90;3.03;;;21.60;56.40;;;;;;5062329;28;20029;-57
2022/06/12 03:43:38;;;;;;;14.70;3.53;;;21.60;56.30;;;;;;5061309;28;20024;-57
2022/06/12 03:46:24;;;;;;;6.18;3.30;;;21.60;56.20;;;;;;5060598;28;20051;-65
2022/06/12 03:48:58;;;;;;;5.80;3.17;;;21.60;56.30;;;;;;5062920;28;20075;-57
2022/06/12 03:51:51;;;;;;;7.38;3.50;;;21.60;56.30;;;;;;5059210;28;20423;-57
2022/06/12 03:54:23;;;;;;;6.68;3.33;;;21.70;56.50;;;;;;5061666;28;20020;-56
2022/06/12 04:00:10;;;;;;;5.75;3.25;;;21.80;56.30;;;;;;5047916;28;20043;-56
2022/06/12 04:02:37;;;;;;;4.65;3.35;;;21.80;56.20;;;;;;5061728;28;20048;-60
2022/06/12 04:05:07;;;;;;;5.95;3.20;;;21.90;56.10;;;;;;5042918;28;20058;-65
2022/06/12 04:07:46;;;;;;;5.85;3.33;;;22.00;56.10;;;;;;5061117;28;20532;-57
2022/06/12 04:10:19;;;;;;;5.35;3.70;;;22.00;56.00;;;;;;5061935;28;20028;-59
2022/06/12 04:12:45;;;;;;;4.65;3.53;;;22.00;56.20;;;;;;5061574;28;20052;-55
2022/06/12 04:15:23;;;;;;;9.07;3.47;;;22.10;56.30;;;;;;5062234;28;20056;-58
2022/06/12 04:17:49;;;;;;;6.75;3.38;;;22.10;56.20;;;;;;5060389;28;20053;-55
2022/06/12 04:20:37;;;;;;;9.25;3.15;;;22.10;56.00;;;;;;5057280;28;20425;-54
2022/06/12 04:23:10;;;;;;;9.07;3.35;;;22.10;56.00;;;;;;5061066;28;20059;-62
2022/06/12 04:25:43;;;;;;;7.47;2.80;;;22.20;55.70;;;;;;5058992;28;20031;-56
2022/06/12 04:28:41;;;;;;;10.73;3.35;;;22.30;55.40;;;;;;5063243;28;20025;-57
2022/06/12 04:31:18;;;;;;;5.85;3.28;;;22.30;55.30;;;;;;5057594;28;20202;-64
2022/06/12 04:34:12;;;;;;;6.03;2.92;;;22.30;55.10;;;;;;5061116;28;20043;-56
2022/06/12 04:36:39;;;;;;;;;;;22.40;55.00;;;;;;5063246;28;20036;-55
2022/06/12 04:39:06;;;;;;;4.50;2.88;;;22.50;54.80;;;;;;5061157;28;19916;-57
2022/06/12 04:41:35;;;;;;;5.75;3.17;;;22.50;54.60;;;;;;5060679;28;20070;-56
2022/06/12 04:44:02;;;;;;;6.15;2.97;;;22.50;54.50;;;;;;5058237;28;20093;-56
2022/06/12 04:46:28;;;;;;;3.92;3.05;;;22.60;54.30;;;;;;5057631;28;20308;-56
2022/06/12 04:48:56;;;;;;;6.03;3.17;;;22.70;54.00;;;;;;5042524;28;20546;-57
2022/06/12 04:51:22;;;;;;;6.05;3.30;;;22.80;53.80;;;;;;5040747;28;20041;-57
2022/06/12 04:53:49;;;;;;;5.30;2.95;;;22.80;53.60;;;;;;5059617;28;20025;-57
2022/06/12 04:56:18;;;;;;;5.15;3.22;;;22.90;53.40;;;;;;5059244;28;20025;-59
2022/06/12 04:58:44;;;;;;;8.57;3.00;;;23.00;53.20;;;;;;5059345;28;20040;-59
2022/06/12 05:01:10;;;;;;;8.45;3.00;;;23.00;52.90;;;;;;5058735;28;20017;-64
2022/06/12 05:03:36;;;;;;;6.15;3.10;;;23.10;52.70;;;;;;5041749;28;20165;-60
2022/06/12 05:06:04;;;;;;;5.78;2.92;;;23.20;52.50;;;;;;5062335;28;20104;-56
2022/06/12 05:08:30;;;;;;;5.78;2.80;;;23.30;52.40;;;;;;5042458;28;20041;-60
2022/06/12 05:10:56;;;;;;;7.75;3.97;;;23.40;52.20;;;;;;5062544;28;20029;-56
2022/06/12 05:13:21;;;;;;;6.15;3.15;;;23.40;51.90;;;;;;5061483;28;20055;-58
2022/06/12 05:15:48;;;;;;;7.82;3.00;;;23.50;51.80;;;;;;5059751;28;20116;-57
2022/06/12 05:18:16;;;;;;;6.47;3.05;;;23.50;51.50;;;;;;5046941;28;20182;-58
2022/06/12 05:20:43;;;;;;;8.32;2.80;;;23.60;51.30;;;;;;5059763;28;20027;-58
2022/06/12 05:23:09;;;;;;;6.88;2.50;;;23.70;50.80;;;;;;5064092;28;20461;-56
2022/06/12 05:25:36;;;;;;;5.60;2.67;;;23.80;50.80;;;;;;5061883;28;20041;-58
2022/06/12 05:28:03;;;;;;;5.30;2.60;;;23.80;50.40;;;;;;5063180;28;20021;-58
2022/06/12 05:30:31;;;;;;;6.93;2.42;;;23.90;50.10;;;;;;5060672;28;20044;-59
2022/06/12 05:32:59;;;;;;;6.28;2.60;;;24.00;50.50;;;;;;5041700;28;20504;-59
2022/06/12 05:35:26;;;;;;;4.25;2.65;;;24.00;49.50;;;;;;5057903;28;20033;-57
2022/06/12 05:37:52;;;;;;;5.25;2.63;;;24.10;49.60;;;;;;5061384;28;20063;-57
2022/06/12 05:40:23;;;;;;;4.57;2.60;;;24.10;49.30;;;;;;5062420;28;20062;-59
2022/06/12 05:42:49;;;;;;;4.85;2.65;;;24.20;49.30;;;;;;5063148;28;20025;-63
2022/06/12 05:45:19;;;;;;;5.78;2.70;;;24.20;49.30;;;;;;5063771;28;20044;-58
2022/06/12 05:47:58;;;;;;;5.68;2.67;;;24.30;48.80;;;;;;5064206;28;20029;-54
2022/06/12 05:50:28;;;;;;;4.28;2.35;;;24.40;48.70;;;;;;5048439;28;20036;-57
2022/06/12 05:52:54;;;;;;;4.60;3.03;;;24.40;48.90;;;;;;5066436;28;20025;-55
2022/06/12 05:55:21;;;;;;;6.25;2.63;;;24.50;48.80;;;;;;5043346;28;20028;-57
2022/06/12 05:57:46;;;;;;;4.97;2.47;;;24.60;48.40;;;;;;5065157;28;20508;-56
2022/06/12 06:00:28;;;;;;;9.32;2.50;;;24.70;48.00;;;;;;5042759;28;20159;-63
2022/06/12 06:02:55;;;;;;;5.18;2.47;;;24.70;48.10;;;;;;5062786;28;20029;-58
2022/06/12 06:05:21;;;;;;;10.15;2.60;;;24.80;48.40;;;;;;5061436;28;20028;-56
2022/06/12 06:07:47;;;;;;;8.45;3.00;;;25.00;47.60;;;;;;5063171;28;20039;-55
2022/06/12 06:10:19;;;;;;;6.30;2.90;;;25.00;47.60;;;;;;5063619;28;20045;-58
2022/06/12 06:12:44;;;;;;;4.22;2.50;;;25.10;47.40;;;;;;5041724;28;20052;-57
2022/06/12 06:15:11;;;;;;;4.72;2.40;;;25.10;47.20;;;;;;5045872;28;20021;-54
2022/06/12 06:17:37;;;;;;;8.35;2.33;;;25.20;46.90;;;;;;5059976;28;20041;-59
2022/06/12 06:20:04;;;;;;;5.57;2.42;;;25.30;47.00;;;;;;5041581;28;20075;-53
2022/06/12 06:22:31;;;;;;;5.05;2.28;;;25.30;46.80;;;;;;5062379;28;20040;-56
2022/06/12 06:24:57;;;;;;;5.75;2.53;;;25.40;46.70;;;;;;5060962;28;20037;-55
2022/06/12 06:27:23;;;;;;;5.70;2.80;;;25.40;46.70;;;;;;5045974;28;20486;-58
2022/06/12 06:29:49;;;;;;;6.25;2.50;;;25.40;46.70;;;;;;5044818;28;20105;-55
2022/06/12 06:32:16;;;;;;;5.20;2.42;;;25.50;46.60;;;;;;5062225;28;20029;-56
2022/06/12 06:34:42;;;;;;;5.18;2.80;;;25.60;46.10;;;;;;5060417;28;20021;-55
2022/06/12 06:37:10;;;;;;;4.03;2.40;;;25.70;46.10;;;;;;5062683;28;20416;-54
2022/06/12 06:39:38;;;;;;;4.13;2.00;;;25.80;45.70;;;;;;5062905;28;20553;-56
2022/06/12 06:42:05;;;;;;;4.90;2.40;;;25.90;45.10;;;;;;5061436;28;20037;-57
2022/06/12 06:47:14;;;;;;;4.30;2.80;;;26.20;44.80;;;;;;5061143;28;20031;-55
2022/06/12 06:49:40;;;;;;;6.15;2.95;;;26.90;44.70;;;;;;5060362;28;20037;-57
2022/06/12 06:52:06;;;;;;;5.55;3.15;;;29.40;42.00;;;;;;5060997;28;20482;-54
2022/06/12 06:54:32;;;;;;;7.30;2.88;;;33.60;36.80;;;;;;5060960;28;20522;-57
2022/06/12 06:56:58;;;;;;;4.00;2.38;;;37.50;31.30;;;;;;5061180;28;20096;-57
2022/06/12 06:59:23;;;;;;;4.68;2.60;;;39.90;28.70;;;;;;5062057;28;20067;-58
2022/06/12 07:01:49;;;;;;;6.25;2.53;;;41.80;27.30;;;;;;5062427;28;20046;-57
2022/06/12 07:04:16;;;;;;;6.55;3.10;;;43.70;26.30;;;;;;5062003;28;20103;-59
2022/06/12 07:06:42;;;;;;;4.30;2.72;;;45.10;25.20;;;;;;5058244;28;20033;-58
2022/06/12 07:09:08;;;;;;;5.28;3.08;;;46.10;24.50;;;;;;5060450;28;20155;-61
2022/06/12 07:11:34;;;;;;;5.18;2.83;;;47.00;24.20;;;;;;5060826;28;20033;-58
2022/06/12 07:14:00;;;;;;;7.43;2.95;;;48.30;23.50;;;;;;5040731;28;20086;-58
2022/06/12 07:16:28;;;;;;;4.85;3.20;;;49.00;23.10;;;;;;5043325;28;20090;-59
2022/06/12 07:18:54;;;;;;;3.88;3.00;;;49.60;22.70;;;;;;5063365;28;20021;-59
2022/06/12 07:21:20;;;;;;;4.78;3.35;;;50.30;22.60;;;;;;5062579;28;20017;-59
2022/06/12 07:23:46;;;;;;;5.13;3.22;;;51.00;22.10;;;;;;5061644;28;20024;-59
2022/06/12 07:26:29;;;;;;;4.70;3.50;;;51.40;21.90;;;;;;5063781;28;20032;-59
2022/06/12 07:28:54;;;;;;;;;;;51.90;21.90;;;;;;5063913;28;20040;-58
2022/06/12 07:31:21;;;;;;;5.13;4.05;;;52.50;22.00;;;;;;5061819;28;19959;-57
2022/06/12 07:33:47;;;;;;;5.20;3.85;;;53.10;21.20;;;;;;5063900;28;20458;-59
2022/06/12 07:36:14;;;;;;;4.15;3.72;;;53.20;21.00;;;;;;5064073;28;20043;-61
2022/06/12 07:38:41;;;;;;;7.20;4.10;;;52.80;21.10;;;;;;5063544;28;20056;-58
2022/06/12 07:41:10;;;;;;;5.85;4.00;;;52.20;21.00;;;;;;5063686;28;20052;-59
2022/06/12 07:43:37;;;;;;;7.18;4.40;;;51.80;21.30;;;;;;5064093;28;20037;-59
2022/06/12 07:46:06;;;;;;;5.20;3.97;;;51.70;21.20;;;;;;5063619;28;20072;-58
2022/06/12 07:48:32;;;;;;;7.70;4.10;;;51.90;21.00;;;;;;5044377;28;20059;-59
2022/06/12 07:50:59;;;;;;;4.93;3.80;;;52.20;21.00;;;;;;5060366;28;20024;-59
2022/06/12 07:53:25;;;;;;;5.80;2.90;;;52.30;20.90;;;;;;5060908;28;20025;-72
2022/06/12 07:55:52;;;;;;;5.13;2.90;;;52.80;20.90;;;;;;5063395;28;20437;-63
2022/06/12 07:58:23;;;;;;;5.18;2.90;;;53.20;20.60;;;;;;5062712;28;20021;-63
2022/06/12 08:00:51;;;;;;;5.50;3.00;;;53.80;20.50;;;;;;5059864;28;20496;-64
2022/06/12 08:03:17;;;;;;;4.63;2.92;;;54.30;20.50;;;;;;5061982;28;20036;-64
2022/06/12 08:05:42;;;;;;;8.07;3.20;;;55.50;20.20;;;;;;5062641;28;20036;-64
2022/06/12 08:08:08;;;;;;;7.50;3.03;;;56.50;19.80;;;;;;5063670;28;20100;-63
2022/06/12 08:10:34;;;;;;;8.50;3.50;;;57.50;19.30;;;;;;5045583;28;20033;-65
2022/06/12 08:13:04;;;;;;;5.45;3.38;;;57.90;19.20;;;;;;5063077;28;20028;-65
2022/06/12 08:15:30;;;;;;;4.00;3.33;;;58.20;19.00;;;;;;5057806;28;20025;-65
2022/06/12 08:17:57;;;;;;;6.65;3.20;;;58.00;18.90;;;;;;5043467;28;20060;-65
2022/06/12 08:20:25;;;;;;;3.90;3.22;;;57.80;18.90;;;;;;5061985;28;20064;-65
2022/06/12 08:23:04;;;;;;;4.93;3.20;;;57.80;19.10;;;;;;5043472;28;20036;-64
2022/06/12 08:25:34;;;;;;;5.07;3.38;;;57.80;19.10;;;;;;5044915;28;20029;-63
2022/06/12 08:28:00;;;;;;;4.47;3.60;;;58.30;19.00;;;;;;5061942;28;20024;-64
2022/06/12 08:30:27;;;;;;;5.35;3.35;;;59.10;18.80;;;;;;5061318;28;20367;-71
2022/06/12 08:32:54;;;;;;;5.28;4.00;;;59.80;18.60;;;;;;5043583;28;20021;-64
2022/06/12 08:35:25;;;;;;;6.45;3.72;;;60.10;18.40;;;;;;5060914;28;20031;-64
2022/06/12 08:37:51;;;;;;;5.40;3.47;;;60.40;18.40;;;;;;5060344;28;20029;-64
2022/06/12 08:40:23;;;;;;;8.27;3.90;;;60.80;18.30;;;;;;5063003;28;20033;-64
2022/06/12 08:43:16;;;;;;;5.18;3.83;;;61.10;18.30;;;;;;5042971;28;20021;-64
2022/06/12 08:45:48;;;;;;;5.15;4.60;;;61.70;18.30;;;;;;5063454;28;20045;-64
2022/06/12 08:48:24;;;;;;;8.48;4.25;;;62.50;18.00;;;;;;5061787;28;20032;-65
2022/06/12 08:51:04;;;;;;;8.45;4.43;;;62.60;17.90;;;;;;5059122;28;20504;-64
2022/06/12 08:53:46;;;;;;;5.43;4.50;;;63.00;17.90;;;;;;5044377;28;20036;-72
2022/06/12 08:56:44;;;;;;;5.57;4.40;;;63.00;17.80;;;;;;5061866;28;20462;-64
2022/06/12 08:59:31;;;;;;;4.97;4.50;;;63.00;17.70;;;;;;5061833;28;20029;-65
2022/06/12 09:01:57;;;;;;;5.68;5.00;;;63.00;17.60;;;;;;5060019;28;20036;-65
2022/06/12 09:04:24;;;;;;;5.32;3.83;;;62.70;17.60;;;;;;5042474;28;20053;-64
2022/06/12 09:07:03;;;;;;;4.60;3.83;;;62.20;17.70;;;;;;5060792;28;20558;-65
2022/06/12 09:09:51;;;;;;;4.93;3.53;;;61.40;17.60;;;;;;5063051;28;20090;-64
2022/06/12 09:12:19;;;;;;;5.00;3.72;;;59.80;17.90;;;;;;5048808;28;20099;-64
2022/06/12 09:15:34;;;;;;;4.25;2.97;;;59.20;18.00;;;;;;5064374;28;20025;-64
2022/06/12 09:18:21;;;;;;;2.80;1.80;;;58.60;18.20;;;;;;5066027;28;20025;-65
2022/06/12 09:21:25;;;;;;;4.30;2.30;;;57.60;18.20;;;;;;5066712;28;20021;-64
2022/06/12 09:24:09;;;;;;;3.30;1.90;;;54.50;18.50;;;;;;5062913;28;20489;-65
2022/06/12 09:26:57;;;;;;;8.82;3.83;;;50.00;19.40;;;;;;5050295;28;20358;-65
2022/06/12 09:29:44;;;;;;;8.93;5.13;;;46.30;20.70;;;;;;5064653;28;20040;-65
2022/06/12 09:32:14;;;;;;;9.25;4.20;;;43.60;21.90;;;;;;5058404;28;20116;-64
2022/06/12 09:35:09;;;;;;;4.72;2.28;;;41.80;23.10;;;;;;5067550;28;20067;-64
2022/06/12 09:38:19;;;;;;;3.88;2.75;;;39.90;24.20;;;;;;5056655;28;20033;-64
2022/06/12 09:41:02;;;;;;;4.00;1.77;;;38.30;24.50;;;;;;5059895;28;20090;-66
2022/06/12 09:43:28;;;;;;;4.30;1.88;;;36.80;25.30;;;;;;5055461;28;20116;-65
2022/06/12 09:46:02;;;;;;;3.35;1.77;;;35.80;25.90;;;;;;5072371;28;20131;-66
2022/06/12 09:48:36;;;;;;;4.68;1.90;;;35.00;26.60;;;;;;5079360;28;20115;-65
2022/06/12 09:51:29;;;;;;;4.78;1.70;;;34.40;27.40;;;;;;5081377;28;20452;-64
2022/06/12 09:54:10;;;;;;;3.72;1.63;;;33.80;27.70;;;;;;5080080;28;20085;-65
2022/06/12 09:56:44;;;;;;;5.32;1.70;;;33.30;28.20;;;;;;5084780;28;20520;-63
2022/06/12 09:59:17;;;;;;;5.00;2.10;;;33.10;28.50;;;;;;5084676;28;20024;-64
2022/06/12 10:01:47;;;;;;;4.10;2.05;;;32.90;28.60;;;;;;5082260;28;20453;-64
2022/06/12 10:04:26;;;;;;;4.60;1.90;;;32.80;28.90;;;;;;5084890;28;20047;-64
2022/06/12 10:07:01;;;;;;;4.47;2.17;;;32.70;29.10;;;;;;5084930;28;20043;-65
2022/06/12 10:09:39;;;;;;;4.10;1.80;;;32.70;29.50;;;;;;5082703;28;20039;-64
2022/06/12 10:12:20;;;;;;;6.43;2.20;;;32.60;29.90;;;;;;5084575;28;20031;-65
2022/06/12 10:14:59;;;;;;;3.90;1.95;;;32.50;30.00;;;;;;5084381;28;20024;-64
2022/06/12 10:17:32;;;;;;;5.13;1.90;;;32.40;30.10;;;;;;5063732;28;20032;-64
2022/06/12 10:20:13;;;;;;;7.13;1.67;;;32.40;29.90;;;;;;5082733;28;20091;-64
2022/06/12 10:22:43;;;;;;;3.63;2.13;;;32.20;30.00;;;;;;5080617;28;20119;-63
2022/06/12 10:25:21;;;;;;;3.55;2.22;;;32.20;30.20;;;;;;5082246;28;20165;-62
2022/06/12 10:28:13;;;;;;;6.30;2.85;;;32.10;30.00;;;;;;5076167;28;20066;-63
2022/06/12 10:30:45;;;;;;;5.00;1.67;;;32.10;30.10;;;;;;5088549;28;20072;-64
2022/06/12 10:33:26;;;;;;;5.70;2.20;;;32.00;30.00;;;;;;5079290;28;20496;-62
2022/06/12 10:35:59;;;;;;;5.07;1.90;;;32.00;30.10;;;;;;5081561;28;20024;-63
2022/06/12 10:38:28;;;;;;;8.65;2.13;;;31.90;30.20;;;;;;5083349;28;20024;-62
2022/06/12 10:40:59;;;;;;;4.57;1.90;;;31.80;30.00;;;;;;5090772;28;20040;-62
2022/06/12 10:43:32;;;;;;;4.50;1.50;;;31.70;30.00;;;;;;5093476;28;20024;-62
2022/06/12 10:46:03;;;;;;;3.85;1.50;;;31.70;30.00;;;;;;5072587;28;20044;-63
2022/06/12 10:48:32;;;;;;;4.60;1.92;;;31.70;30.00;;;;;;5079218;28;20107;-60
2022/06/12 10:51:02;;;;;;;4.20;1.67;;;31.60;30.10;;;;;;5089945;28;20727;-61
2022/06/12 10:53:30;;;;;;;4.78;1.63;;;31.60;30.50;;;;;;5086612;28;20097;-62
2022/06/12 10:56:14;;;;;;;9.00;1.85;;;31.60;30.80;;;;;;5076506;28;20029;-60
2022/06/12 10:59:10;;;;;;;5.15;2.25;;;31.50;30.40;;;;;;5073618;28;20029;-70
2022/06/12 11:02:15;;;;;;;11.30;4.40;;;31.60;31.30;;;;;;5079864;28;20038;-62
2022/06/12 11:05:08;;;;;;;7.43;4.78;;;31.70;31.30;;;;;;5071771;28;20063;-67
2022/06/12 11:07:37;;;;;;;7.55;2.05;;;31.80;31.10;;;;;;5072937;28;20060;-62
2022/06/12 11:10:25;;;;;;;23.98;17.77;;;31.70;31.00;;;;;;5081034;28;20047;-61
2022/06/12 11:13:22;;;;;;;7.22;3.75;;;31.70;31.40;;;;;;5082728;28;20032;-62
2022/06/12 11:15:50;;;;;;;8.05;3.92;;;31.70;31.30;;;;;;5079726;28;20169;-63
2022/06/12 11:18:50;;;;;;;3.28;2.10;;;31.90;30.60;;;;;;5080395;28;20028;-62
2022/06/12 11:21:34;;;;;;;7.22;3.00;;;31.90;30.50;;;;;;5076128;28;20039;-63
2022/06/12 11:24:12;;;;;;;5.60;2.28;;;31.90;30.40;;;;;;5084851;28;20043;-64
2022/06/12 11:26:49;;;;;;;5.97;2.60;;;31.70;30.50;;;;;;5093220;28;20024;-61
2022/06/12 11:29:33;;;;;;;6.25;4.10;;;31.70;30.90;;;;;;5075025;28;20043;-63
2022/06/12 11:32:11;;;;;;;4.15;2.10;;;31.80;31.20;;;;;;5078123;28;20054;-61
2022/06/12 11:34:39;;;;;;;8.13;2.22;;;31.90;30.50;;;;;;5086463;28;20055;-60
2022/06/12 11:37:17;;;;;;;5.93;2.10;;;31.90;30.40;;;;;;5070146;28;20051;-62
2022/06/12 11:39:59;;;;;;;5.47;2.45;;;31.80;30.40;;;;;;5087635;28;20031;-70
2022/06/12 11:43:00;;;;;;;3.67;1.92;;;31.80;31.50;;;;;;5090283;28;20097;-62
2022/06/12 11:45:31;;;;;;;3.75;2.47;;;31.70;31.20;;;;;;5066489;28;20131;-63
2022/06/12 11:48:09;;;;;;;5.50;1.63;;;31.60;31.70;;;;;;5083048;28;20103;-62
2022/06/12 11:50:53;;;;;;;5.55;2.13;;;31.50;31.40;;;;;;5077142;28;20066;-60
2022/06/12 11:53:26;;;;;;;6.03;3.13;;;31.50;31.80;;;;;;5081109;28;20032;-61
2022/06/12 11:55:56;;;;;;;4.55;2.42;;;31.60;31.80;;;;;;5083927;28;20492;-61
2022/06/12 11:58:31;;;;;;;7.05;2.47;;;31.80;32.20;;;;;;5081594;28;20038;-62
2022/06/12 12:01:28;;;;;;;3.33;1.63;;;32.00;31.80;;;;;;5087396;28;20363;-65
2022/06/12 12:04:02;;;;;;;2.75;1.52;;;32.20;31.70;;;;;;5082735;28;20028;-62
2022/06/12 12:07:21;;;;;;;6.60;1.77;;;32.10;30.30;;;;;;5071767;28;20025;-61
2022/06/12 12:10:24;;;;;;;3.20;1.85;;;32.00;30.50;;;;;;5013063;28;20394;-68
2022/06/12 12:12:56;;;;;;;3.70;1.70;;;31.70;31.00;;;;;;5026919;28;20521;-61
2022/06/12 12:15:28;;;;;;;5.22;2.00;;;31.70;31.10;;;;;;5029207;28;20276;-62
2022/06/12 12:17:56;;;;;;;4.00;2.60;;;31.60;32.20;;;;;;5010694;28;20146;-64
2022/06/12 12:20:36;;;;;;;62.95;54.53;;;31.60;31.40;;;;;;4992374;28;20046;-61
2022/06/12 12:23:20;;;;;;;15.10;10.43;;;31.60;32.20;;;;;;4993134;28;20025;-63
2022/06/12 12:25:53;;;;;;;6.05;2.28;;;31.60;32.60;;;;;;5003745;28;20054;-71
2022/06/12 12:28:45;;;;;;;4.60;1.80;;;31.50;31.70;;;;;;4993999;28;20089;-64
2022/06/12 12:31:13;;;;;;;3.25;1.80;;;31.60;31.20;;;;;;5000762;28;20037;-63
2022/06/12 12:33:41;;;;;;;4.35;2.00;;;31.80;31.00;;;;;;4993827;28;20043;-63
2022/06/12 12:41:51;;;;;;;7.13;2.65;;;32.10;31.40;;;;;;5068811;28;20436;-63
2022/06/12 12:44:37;;;;;;;5.05;1.80;;;32.30;31.00;;;;;;5082328;28;20044;-63
2022/06/12 12:47:24;;;;;;;4.13;2.47;;;32.40;29.30;;;;;;5089758;28;20048;-62
2022/06/12 12:50:07;;;;;;;4.03;1.60;;;32.50;29.50;;;;;;5078947;28;20036;-70
2022/06/12 12:52:53;;;;;;;5.47;1.53;;;32.50;29.60;;;;;;5080828;28;20055;-61
2022/06/12 12:55:35;;;;;;;4.10;2.10;;;32.50;29.90;;;;;;5071411;28;20033;-62
2022/06/12 12:58:20;;;;;;;3.72;2.10;;;32.50;30.00;;;;;;5070316;28;20032;-63
2022/06/12 13:00:46;;;;;;;4.25;1.95;;;32.50;29.90;;;;;;5086673;28;20489;-63
2022/06/12 13:03:28;;;;;;;4.55;2.20;;;32.50;29.90;;;;;;5074973;28;20123;-63
2022/06/12 13:06:08;;;;;;;5.60;2.08;;;32.60;29.80;;;;;;5088506;28;20032;-62
2022/06/12 13:08:39;;;;;;;3.15;1.80;;;32.70;30.00;;;;;;5091163;28;20088;-63
2022/06/12 13:11:29;;;;;;;10.82;6.57;;;32.90;29.80;;;;;;5072859;28;20450;-63
2022/06/12 13:14:23;;;;;;;15.77;9.57;;;33.00;29.40;;;;;;5069160;28;20443;-63
2022/06/12 13:16:54;;;;;;;3.72;1.88;;;32.90;29.30;;;;;;5068843;28;20071;-63
2022/06/12 13:19:34;;;;;;;3.35;1.60;;;33.00;29.20;;;;;;5070966;28;20111;-63
2022/06/12 13:22:18;;;;;;;3.65;1.70;;;32.90;29.30;;;;;;5070588;28;20036;-63
2022/06/12 13:24:51;;;;;;;3.60;1.70;;;32.90;29.40;;;;;;5090778;28;20466;-62
2022/06/12 13:27:21;;;;;;;;;;;32.80;29.30;;;;;;5080200;28;20029;-63
2022/06/12 13:29:48;;;;;;;4.25;1.90;;;32.80;29.50;;;;;;5070963;28;19912;-64
2022/06/12 13:32:25;;;;;;;2.90;1.55;;;32.70;29.60;;;;;;5070300;28;20086;-63
2022/06/12 13:35:03;;;;;;;4.10;1.60;;;32.60;29.70;;;;;;5072907;28;20028;-63
2022/06/12 13:37:33;;;;;;;5.40;1.50;;;32.70;30.00;;;;;;5091565;28;20089;-64
2022/06/12 13:40:00;;;;;;;5.53;2.67;;;32.60;30.30;;;;;;5089907;28;20055;-63
2022/06/12 13:42:29;;;;;;;3.58;1.90;;;32.80;30.30;;;;;;5089027;28;20024;-63